TimeEST,TemperatureF,Dew PointF,Humidity,Sea Level PressureIn,VisibilityMPH,Wind Direction,Wind SpeedMPH,Gust SpeedMPH,PrecipitationIn,Events,Conditions,WindDirDegrees,DateUTC
12:51 AM,28.0,16.0,61,29.94,10.0,NW,12.7,25.3,N/A,,Overcast,310,2013-02-04 05:51:00
1:51 AM,25.0,12.9,60,29.96,10.0,NW,16.1,21.9,N/A,,Clear,310,2013-02-04 06:51:00
2:51 AM,25.0,12.0,58,29.97,10.0,WNW,10.4,-,N/A,,Clear,300,2013-02-04 07:51:00
3:51 AM,23.0,10.9,60,29.99,10.0,WNW,9.2,-,N/A,,Clear,300,2013-02-04 08:51:00
5:51 AM,21.2,10.4,63,30.01,10.0,West,3.5,-,N/A,,Clear,260,2013-02-04 10:51:00
6:51 AM,21.9,10.9,63,30.04,10.0,West,8.1,-,N/A,,Clear,270,2013-02-04 11:51:00
7:51 AM,23.0,12.0,63,30.08,10.0,West,8.1,-,N/A,,Clear,260,2013-02-04 12:51:00
8:51 AM,26.1,12.0,55,30.09,10.0,West,10.4,-,N/A,,Clear,270,2013-02-04 13:51:00
9:51 AM,28.0,10.9,49,30.09,10.0,West,10.4,-,N/A,,Clear,280,2013-02-04 14:51:00
10:51 AM,28.0,10.9,49,30.10,10.0,WNW,16.1,23.0,N/A,,Mostly Cloudy,290,2013-02-04 15:51:00
11:51 AM,30.0,12.0,47,30.07,10.0,West,12.7,23.0,N/A,,Scattered Clouds,270,2013-02-04 16:51:00
12:51 PM,32.0,10.9,42,30.03,10.0,West,15.0,21.9,N/A,,Clear,280,2013-02-04 17:51:00
1:51 PM,30.9,10.0,42,30.01,10.0,West,10.4,-,N/A,,Clear,260,2013-02-04 18:51:00
2:51 PM,32.0,10.9,42,30.00,10.0,West,15.0,-,N/A,,Clear,280,2013-02-04 19:51:00
3:51 PM,32.0,12.9,45,30.00,10.0,West,6.9,-,N/A,,Clear,260,2013-02-04 20:51:00
4:51 PM,32.0,14.0,48,29.99,10.0,WSW,6.9,-,N/A,,Clear,250,2013-02-04 21:51:00
5:51 PM,28.9,14.0,54,30.00,10.0,South,5.8,-,N/A,,Clear,180,2013-02-04 22:51:00
6:51 PM,28.9,16.0,58,30.00,10.0,South,5.8,-,N/A,,Clear,170,2013-02-04 23:51:00
7:51 PM,30.0,18.0,61,29.99,10.0,South,6.9,-,N/A,,Mostly Cloudy,170,2013-02-05 00:51:00
8:51 PM,32.0,19.0,59,29.99,10.0,South,6.9,-,N/A,,Overcast,180,2013-02-05 01:51:00
9:51 PM,30.9,18.0,59,29.99,10.0,South,6.9,-,N/A,,Overcast,190,2013-02-05 02:51:00
10:36 PM,30.2,19.4,64,29.97,3.0,South,3.5,-,0.00,Snow,Light Snow,170,2013-02-05 03:36:00
10:51 PM,30.0,23.0,75,29.97,2.0,South,4.6,-,0.00,Snow,Light Snow,180,2013-02-05 03:51:00
11:19 PM,28.4,24.8,86,29.96,3.0,SSE,3.5,-,0.00,Snow,Light Snow,150,2013-02-05 04:19:00
11:51 PM,30.0,27.0,88,29.95,4.0,Calm,Calm,-,0.00,Snow,Light Snow,0,2013-02-05 04:51:00